sensor_id;sensor_type;location;lat;lon;timestamp;P1;durP1;ratioP1;P2;durP2;ratioP2
37065;SDS011;22981;43.080;25.550;2023-09-07T00:00:19;6.08;;;4.62;;
37065;SDS011;22981;43.080;25.550;2023-09-07T00:02:46;6.83;;;4.00;;
37065;SDS011;22981;43.080;25.550;2023-09-07T00:05:14;9.78;;;4.65;;
37065;SDS011;22981;43.080;25.550;2023-09-07T00:07:41;5.03;;;4.42;;
37065;SDS011;22981;43.080;25.550;2023-09-07T00:10:09;9.70;;;5.10;;
37065;SDS011;22981;43.080;25.550;2023-09-07T00:12:37;7.83;;;4.37;;
37065;SDS011;22981;43.080;25.550;2023-09-07T00:15:05;4.70;;;4.12;;
37065;SDS011;22981;43.080;25.550;2023-09-07T00:17:33;7.05;;;5.55;;
37065;SDS011;22981;43.080;25.550;2023-09-07T00:20:00;8.18;;;5.30;;
37065;SDS011;22981;43.080;25.550;2023-09-07T00:22:30;6.97;;;4.42;;
37065;SDS011;22981;43.080;25.550;2023-09-07T00:24:58;9.03;;;4.92;;
37065;SDS011;22981;43.080;25.550;2023-09-07T00:27:26;9.00;;;4.60;;
37065;SDS011;22981;43.080;25.550;2023-09-07T00:29:53;6.08;;;4.33;;
37065;SDS011;22981;43.080;25.550;2023-09-07T00:32:21;9.00;;;4.80;;
37065;SDS011;22981;43.080;25.550;2023-09-07T00:34:48;8.98;;;4.58;;
37065;SDS011;22981;43.080;25.550;2023-09-07T00:37:16;6.33;;;4.87;;
37065;SDS011;22981;43.080;25.550;2023-09-07T00:39:43;8.83;;;4.95;;
37065;SDS011;22981;43.080;25.550;2023-09-07T00:42:11;10.28;;;5.00;;
37065;SDS011;22981;43.080;25.550;2023-09-07T00:44:39;9.55;;;4.75;;
37065;SDS011;22981;43.080;25.550;2023-09-07T00:47:06;5.85;;;4.83;;
37065;SDS011;22981;43.080;25.550;2023-09-07T00:49:34;6.78;;;4.15;;
37065;SDS011;22981;43.080;25.550;2023-09-07T00:52:01;7.10;;;5.00;;
37065;SDS011;22981;43.080;25.550;2023-09-07T00:54:29;10.68;;;5.28;;
37065;SDS011;22981;43.080;25.550;2023-09-07T00:56:57;10.60;;;4.87;;
37065;SDS011;22981;43.080;25.550;2023-09-07T00:59:25;12.43;;;5.37;;
37065;SDS011;22981;43.080;25.550;2023-09-07T01:01:53;6.75;;;5.30;;
37065;SDS011;22981;43.080;25.550;2023-09-07T01:04:21;5.87;;;4.87;;
37065;SDS011;22981;43.080;25.550;2023-09-07T01:06:51;9.68;;;4.92;;
37065;SDS011;22981;43.080;25.550;2023-09-07T01:09:20;11.78;;;5.25;;
37065;SDS011;22981;43.080;25.550;2023-09-07T01:11:50;9.43;;;5.20;;
37065;SDS011;22981;43.080;25.550;2023-09-07T01:14:18;9.13;;;5.37;;
37065;SDS011;22981;43.080;25.550;2023-09-07T01:16:46;10.63;;;5.00;;
37065;SDS011;22981;43.080;25.550;2023-09-07T01:19:14;10.38;;;5.20;;
37065;SDS011;22981;43.080;25.550;2023-09-07T01:21:41;7.58;;;5.72;;
37065;SDS011;22981;43.080;25.550;2023-09-07T01:24:10;8.23;;;5.40;;
37065;SDS011;22981;43.080;25.550;2023-09-07T01:26:40;7.65;;;5.05;;
37065;SDS011;22981;43.080;25.550;2023-09-07T01:29:08;7.67;;;4.87;;
37065;SDS011;22981;43.080;25.550;2023-09-07T01:31:36;13.30;;;4.62;;
37065;SDS011;22981;43.080;25.550;2023-09-07T01:34:04;7.80;;;5.10;;
37065;SDS011;22981;43.080;25.550;2023-09-07T01:36:33;7.75;;;4.87;;
37065;SDS011;22981;43.080;25.550;2023-09-07T01:39:01;11.33;;;5.50;;
37065;SDS011;22981;43.080;25.550;2023-09-07T01:41:31;7.90;;;4.65;;
37065;SDS011;22981;43.080;25.550;2023-09-07T01:43:59;7.12;;;5.05;;
37065;SDS011;22981;43.080;25.550;2023-09-07T01:46:26;8.65;;;5.47;;
37065;SDS011;22981;43.080;25.550;2023-09-07T01:48:54;9.53;;;5.00;;
37065;SDS011;22981;43.080;25.550;2023-09-07T01:51:22;9.15;;;5.05;;
37065;SDS011;22981;43.080;25.550;2023-09-07T01:53:51;9.05;;;5.00;;
37065;SDS011;22981;43.080;25.550;2023-09-07T01:56:18;11.18;;;5.92;;
37065;SDS011;22981;43.080;25.550;2023-09-07T01:58:46;13.00;;;5.62;;
37065;SDS011;22981;43.080;25.550;2023-09-07T02:01:29;7.22;;;5.22;;
37065;SDS011;22981;43.080;25.550;2023-09-07T02:03:55;8.38;;;5.33;;
37065;SDS011;22981;43.080;25.550;2023-09-07T02:06:23;5.58;;;5.10;;
37065;SDS011;22981;43.080;25.550;2023-09-07T02:08:50;8.90;;;5.70;;
37065;SDS011;22981;43.080;25.550;2023-09-07T02:11:18;8.90;;;4.80;;
37065;SDS011;22981;43.080;25.550;2023-09-07T02:13:47;5.17;;;4.67;;
37065;SDS011;22981;43.080;25.550;2023-09-07T02:16:16;7.87;;;4.85;;
37065;SDS011;22981;43.080;25.550;2023-09-07T02:18:44;9.53;;;4.75;;
37065;SDS011;22981;43.080;25.550;2023-09-07T02:21:12;10.65;;;5.10;;
37065;SDS011;22981;43.080;25.550;2023-09-07T02:23:40;10.05;;;4.92;;
37065;SDS011;22981;43.080;25.550;2023-09-07T02:26:08;11.43;;;5.17;;
37065;SDS011;22981;43.080;25.550;2023-09-07T02:28:36;8.55;;;5.00;;
37065;SDS011;22981;43.080;25.550;2023-09-07T02:31:04;9.05;;;5.45;;
37065;SDS011;22981;43.080;25.550;2023-09-07T02:33:33;6.45;;;5.05;;
37065;SDS011;22981;43.080;25.550;2023-09-07T02:36:01;9.85;;;4.85;;
37065;SDS011;22981;43.080;25.550;2023-09-07T02:38:28;7.85;;;5.30;;
37065;SDS011;22981;43.080;25.550;2023-09-07T02:40:56;9.50;;;5.28;;
37065;SDS011;22981;43.080;25.550;2023-09-07T02:43:24;7.40;;;5.35;;
37065;SDS011;22981;43.080;25.550;2023-09-07T02:45:52;6.40;;;4.83;;
37065;SDS011;22981;43.080;25.550;2023-09-07T02:48:20;9.58;;;5.25;;
37065;SDS011;22981;43.080;25.550;2023-09-07T02:50:48;5.70;;;4.72;;
37065;SDS011;22981;43.080;25.550;2023-09-07T02:53:16;7.03;;;4.95;;
37065;SDS011;22981;43.080;25.550;2023-09-07T02:55:44;6.42;;;4.90;;
37065;SDS011;22981;43.080;25.550;2023-09-07T02:58:11;9.48;;;5.10;;
37065;SDS011;22981;43.080;25.550;2023-09-07T03:00:42;6.17;;;5.17;;
37065;SDS011;22981;43.080;25.550;2023-09-07T03:03:11;7.22;;;5.10;;
37065;SDS011;22981;43.080;25.550;2023-09-07T03:05:39;7.50;;;5.22;;
37065;SDS011;22981;43.080;25.550;2023-09-07T03:08:07;5.58;;;5.08;;
37065;SDS011;22981;43.080;25.550;2023-09-07T03:10:35;8.63;;;5.47;;
37065;SDS011;22981;43.080;25.550;2023-09-07T03:13:06;9.23;;;5.17;;
37065;SDS011;22981;43.080;25.550;2023-09-07T03:15:34;7.67;;;5.50;;
37065;SDS011;22981;43.080;25.550;2023-09-07T03:18:03;8.53;;;5.20;;
37065;SDS011;22981;43.080;25.550;2023-09-07T03:20:32;9.55;;;4.90;;
37065;SDS011;22981;43.080;25.550;2023-09-07T03:23:00;8.30;;;5.40;;
37065;SDS011;22981;43.080;25.550;2023-09-07T03:25:29;9.48;;;5.40;;
37065;SDS011;22981;43.080;25.550;2023-09-07T03:27:56;6.72;;;5.30;;
37065;SDS011;22981;43.080;25.550;2023-09-07T03:30:24;6.47;;;5.30;;
37065;SDS011;22981;43.080;25.550;2023-09-07T03:32:52;9.48;;;4.95;;
37065;SDS011;22981;43.080;25.550;2023-09-07T03:35:19;6.65;;;5.45;;
37065;SDS011;22981;43.080;25.550;2023-09-07T03:37:47;7.12;;;5.30;;
37065;SDS011;22981;43.080;25.550;2023-09-07T03:40:14;7.83;;;5.83;;
37065;SDS011;22981;43.080;25.550;2023-09-07T03:42:42;9.40;;;5.22;;
37065;SDS011;22981;43.080;25.550;2023-09-07T03:45:11;10.05;;;5.47;;
37065;SDS011;22981;43.080;25.550;2023-09-07T03:47:39;10.13;;;5.37;;
37065;SDS011;22981;43.080;25.550;2023-09-07T03:50:06;8.70;;;5.22;;
37065;SDS011;22981;43.080;25.550;2023-09-07T03:52:35;6.58;;;4.90;;
37065;SDS011;22981;43.080;25.550;2023-09-07T03:55:02;8.10;;;4.90;;
37065;SDS011;22981;43.080;25.550;2023-09-07T03:57:30;6.70;;;4.85;;
37065;SDS011;22981;43.080;25.550;2023-09-07T03:59:58;6.25;;;4.75;;
37065;SDS011;22981;43.080;25.550;2023-09-07T04:02:26;8.58;;;5.47;;
37065;SDS011;22981;43.080;25.550;2023-09-07T04:04:54;6.15;;;5.10;;
37065;SDS011;22981;43.080;25.550;2023-09-07T04:07:21;5.72;;;5.08;;
37065;SDS011;22981;43.080;25.550;2023-09-07T04:09:50;8.90;;;5.15;;
37065;SDS011;22981;43.080;25.550;2023-09-07T04:12:17;7.12;;;5.22;;
37065;SDS011;22981;43.080;25.550;2023-09-07T04:14:45;8.88;;;5.15;;
37065;SDS011;22981;43.080;25.550;2023-09-07T04:17:13;11.68;;;5.62;;
37065;SDS011;22981;43.080;25.550;2023-09-07T04:19:40;11.08;;;5.55;;
37065;SDS011;22981;43.080;25.550;2023-09-07T04:22:10;6.50;;;4.83;;
37065;SDS011;22981;43.080;25.550;2023-09-07T04:24:38;8.80;;;6.00;;
37065;SDS011;22981;43.080;25.550;2023-09-07T04:27:06;12.40;;;5.78;;
37065;SDS011;22981;43.080;25.550;2023-09-07T04:29:33;12.37;;;5.83;;
37065;SDS011;22981;43.080;25.550;2023-09-07T04:32:01;6.20;;;5.55;;
37065;SDS011;22981;43.080;25.550;2023-09-07T04:34:28;8.75;;;5.40;;
37065;SDS011;22981;43.080;25.550;2023-09-07T04:36:57;6.53;;;5.25;;
37065;SDS011;22981;43.080;25.550;2023-09-07T04:39:25;8.63;;;5.60;;
37065;SDS011;22981;43.080;25.550;2023-09-07T04:41:52;8.40;;;5.05;;
37065;SDS011;22981;43.080;25.550;2023-09-07T04:44:20;8.75;;;5.20;;
37065;SDS011;22981;43.080;25.550;2023-09-07T04:46:47;10.35;;;5.70;;
37065;SDS011;22981;43.080;25.550;2023-09-07T04:49:15;9.88;;;5.58;;
37065;SDS011;22981;43.080;25.550;2023-09-07T04:51:43;10.05;;;5.55;;
37065;SDS011;22981;43.080;25.550;2023-09-07T04:54:11;6.87;;;5.50;;
37065;SDS011;22981;43.080;25.550;2023-09-07T04:56:39;8.48;;;5.83;;
37065;SDS011;22981;43.080;25.550;2023-09-07T04:59:06;7.58;;;6.08;;
37065;SDS011;22981;43.080;25.550;2023-09-07T05:01:34;7.35;;;5.85;;
37065;SDS011;22981;43.080;25.550;2023-09-07T05:04:02;7.37;;;6.37;;
37065;SDS011;22981;43.080;25.550;2023-09-07T05:06:29;12.80;;;6.00;;
37065;SDS011;22981;43.080;25.550;2023-09-07T05:08:59;10.78;;;6.45;;
37065;SDS011;22981;43.080;25.550;2023-09-07T05:11:26;13.18;;;6.58;;
37065;SDS011;22981;43.080;25.550;2023-09-07T05:13:54;6.67;;;5.97;;
37065;SDS011;22981;43.080;25.550;2023-09-07T05:16:21;9.63;;;6.20;;
37065;SDS011;22981;43.080;25.550;2023-09-07T05:18:49;10.70;;;6.00;;
37065;SDS011;22981;43.080;25.550;2023-09-07T05:21:16;7.50;;;5.55;;
37065;SDS011;22981;43.080;25.550;2023-09-07T05:23:46;9.55;;;6.33;;
37065;SDS011;22981;43.080;25.550;2023-09-07T05:26:13;8.20;;;5.58;;
37065;SDS011;22981;43.080;25.550;2023-09-07T05:28:40;7.35;;;5.85;;
37065;SDS011;22981;43.080;25.550;2023-09-07T05:31:08;12.70;;;6.00;;
37065;SDS011;22981;43.080;25.550;2023-09-07T05:33:36;10.05;;;6.65;;
37065;SDS011;22981;43.080;25.550;2023-09-07T05:36:03;11.40;;;5.80;;
37065;SDS011;22981;43.080;25.550;2023-09-07T05:38:31;11.33;;;5.97;;
37065;SDS011;22981;43.080;25.550;2023-09-07T05:40:59;8.75;;;5.53;;
37065;SDS011;22981;43.080;25.550;2023-09-07T05:43:26;8.38;;;5.00;;
37065;SDS011;22981;43.080;25.550;2023-09-07T05:45:54;7.95;;;5.25;;
37065;SDS011;22981;43.080;25.550;2023-09-07T05:48:21;8.73;;;5.80;;
37065;SDS011;22981;43.080;25.550;2023-09-07T05:50:49;8.63;;;5.20;;
37065;SDS011;22981;43.080;25.550;2023-09-07T05:53:18;7.83;;;6.12;;
37065;SDS011;22981;43.080;25.550;2023-09-07T05:55:50;14.53;;;5.70;;
37065;SDS011;22981;43.080;25.550;2023-09-07T05:58:17;7.05;;;5.90;;
37065;SDS011;22981;43.080;25.550;2023-09-07T06:00:45;7.75;;;5.50;;
37065;SDS011;22981;43.080;25.550;2023-09-07T06:03:13;10.28;;;5.37;;
37065;SDS011;22981;43.080;25.550;2023-09-07T06:05:40;10.43;;;5.67;;
37065;SDS011;22981;43.080;25.550;2023-09-07T06:08:10;6.50;;;5.12;;
37065;SDS011;22981;43.080;25.550;2023-09-07T06:10:37;5.58;;;5.08;;
37065;SDS011;22981;43.080;25.550;2023-09-07T06:13:05;7.05;;;5.42;;
37065;SDS011;22981;43.080;25.550;2023-09-07T06:15:32;7.67;;;5.20;;
37065;SDS011;22981;43.080;25.550;2023-09-07T06:18:01;10.50;;;5.55;;
37065;SDS011;22981;43.080;25.550;2023-09-07T06:20:29;8.20;;;5.35;;
37065;SDS011;22981;43.080;25.550;2023-09-07T06:22:56;8.65;;;5.17;;
37065;SDS011;22981;43.080;25.550;2023-09-07T06:25:24;6.08;;;5.12;;
37065;SDS011;22981;43.080;25.550;2023-09-07T06:27:52;7.12;;;5.03;;
37065;SDS011;22981;43.080;25.550;2023-09-07T06:30:20;6.72;;;4.92;;
37065;SDS011;22981;43.080;25.550;2023-09-07T06:32:47;10.38;;;4.72;;
37065;SDS011;22981;43.080;25.550;2023-09-07T06:35:17;8.50;;;4.40;;
37065;SDS011;22981;43.080;25.550;2023-09-07T06:37:44;8.43;;;5.08;;
37065;SDS011;22981;43.080;25.550;2023-09-07T06:40:12;9.43;;;5.30;;
37065;SDS011;22981;43.080;25.550;2023-09-07T06:42:41;5.37;;;4.47;;
37065;SDS011;22981;43.080;25.550;2023-09-07T06:45:08;5.67;;;4.40;;
37065;SDS011;22981;43.080;25.550;2023-09-07T06:47:36;7.97;;;4.62;;
37065;SDS011;22981;43.080;25.550;2023-09-07T06:50:04;8.38;;;4.28;;
37065;SDS011;22981;43.080;25.550;2023-09-07T06:52:33;6.95;;;4.10;;
37065;SDS011;22981;43.080;25.550;2023-09-07T06:55:00;7.75;;;4.95;;
37065;SDS011;22981;43.080;25.550;2023-09-07T06:57:28;7.55;;;4.67;;
37065;SDS011;22981;43.080;25.550;2023-09-07T06:59:56;8.78;;;4.83;;
37065;SDS011;22981;43.080;25.550;2023-09-07T07:02:23;7.15;;;4.33;;
37065;SDS011;22981;43.080;25.550;2023-09-07T07:04:51;7.35;;;4.60;;
37065;SDS011;22981;43.080;25.550;2023-09-07T07:07:18;6.58;;;4.83;;
37065;SDS011;22981;43.080;25.550;2023-09-07T07:09:46;9.10;;;4.58;;
37065;SDS011;22981;43.080;25.550;2023-09-07T07:12:14;8.10;;;4.67;;
37065;SDS011;22981;43.080;25.550;2023-09-07T07:14:41;10.75;;;5.45;;
37065;SDS011;22981;43.080;25.550;2023-09-07T07:17:09;5.90;;;4.37;;
37065;SDS011;22981;43.080;25.550;2023-09-07T07:19:36;6.03;;;4.50;;
37065;SDS011;22981;43.080;25.550;2023-09-07T07:22:04;6.30;;;5.17;;
37065;SDS011;22981;43.080;25.550;2023-09-07T07:24:31;8.15;;;5.12;;
37065;SDS011;22981;43.080;25.550;2023-09-07T07:26:59;11.38;;;4.92;;
37065;SDS011;22981;43.080;25.550;2023-09-07T07:29:28;6.85;;;5.40;;
37065;SDS011;22981;43.080;25.550;2023-09-07T07:31:56;7.85;;;4.67;;
37065;SDS011;22981;43.080;25.550;2023-09-07T07:34:23;6.40;;;5.30;;
37065;SDS011;22981;43.080;25.550;2023-09-07T07:36:51;9.70;;;4.90;;
37065;SDS011;22981;43.080;25.550;2023-09-07T07:39:18;7.67;;;5.00;;
37065;SDS011;22981;43.080;25.550;2023-09-07T07:41:46;6.55;;;4.87;;
37065;SDS011;22981;43.080;25.550;2023-09-07T07:44:13;7.20;;;5.00;;
37065;SDS011;22981;43.080;25.550;2023-09-07T07:46:41;5.72;;;5.12;;
37065;SDS011;22981;43.080;25.550;2023-09-07T07:49:09;7.35;;;5.00;;
37065;SDS011;22981;43.080;25.550;2023-09-07T07:51:36;7.42;;;5.03;;
37065;SDS011;22981;43.080;25.550;2023-09-07T07:54:04;8.80;;;4.80;;
37065;SDS011;22981;43.080;25.550;2023-09-07T07:56:32;9.55;;;5.00;;
37065;SDS011;22981;43.080;25.550;2023-09-07T07:58:59;6.87;;;5.15;;
37065;SDS011;22981;43.080;25.550;2023-09-07T08:01:27;8.25;;;5.00;;
37065;SDS011;22981;43.080;25.550;2023-09-07T08:03:55;11.33;;;5.53;;
37065;SDS011;22981;43.080;25.550;2023-09-07T08:06:22;11.10;;;5.22;;
37065;SDS011;22981;43.080;25.550;2023-09-07T08:08:50;5.92;;;4.67;;
37065;SDS011;22981;43.080;25.550;2023-09-07T08:11:18;7.45;;;5.30;;
37065;SDS011;22981;43.080;25.550;2023-09-07T08:13:47;9.60;;;5.20;;
37065;SDS011;22981;43.080;25.550;2023-09-07T08:16:14;7.53;;;5.03;;
37065;SDS011;22981;43.080;25.550;2023-09-07T08:18:43;6.90;;;4.80;;
37065;SDS011;22981;43.080;25.550;2023-09-07T08:21:12;7.22;;;5.17;;
37065;SDS011;22981;43.080;25.550;2023-09-07T08:23:40;8.38;;;5.05;;
37065;SDS011;22981;43.080;25.550;2023-09-07T08:26:08;8.28;;;5.17;;
37065;SDS011;22981;43.080;25.550;2023-09-07T08:28:36;8.70;;;5.08;;
37065;SDS011;22981;43.080;25.550;2023-09-07T08:31:03;10.32;;;5.25;;
37065;SDS011;22981;43.080;25.550;2023-09-07T08:33:31;9.83;;;5.70;;
37065;SDS011;22981;43.080;25.550;2023-09-07T08:36:01;9.15;;;5.37;;
37065;SDS011;22981;43.080;25.550;2023-09-07T08:38:30;10.05;;;4.97;;
37065;SDS011;22981;43.080;25.550;2023-09-07T08:41:00;7.37;;;5.53;;
37065;SDS011;22981;43.080;25.550;2023-09-07T08:43:29;5.53;;;4.95;;
37065;SDS011;22981;43.080;25.550;2023-09-07T08:46:03;10.82;;;5.85;;
37065;SDS011;22981;43.080;25.550;2023-09-07T08:48:29;6.60;;;4.95;;
37065;SDS011;22981;43.080;25.550;2023-09-07T08:50:58;8.13;;;5.00;;
37065;SDS011;22981;43.080;25.550;2023-09-07T08:53:26;8.83;;;5.00;;
37065;SDS011;22981;43.080;25.550;2023-09-07T08:55:56;7.40;;;4.97;;
37065;SDS011;22981;43.080;25.550;2023-09-07T08:58:24;6.55;;;5.10;;
37065;SDS011;22981;43.080;25.550;2023-09-07T09:00:51;6.22;;;4.78;;
37065;SDS011;22981;43.080;25.550;2023-09-07T09:03:20;10.03;;;5.33;;
37065;SDS011;22981;43.080;25.550;2023-09-07T09:05:48;6.55;;;4.75;;
37065;SDS011;22981;43.080;25.550;2023-09-07T09:08:18;6.40;;;4.65;;
37065;SDS011;22981;43.080;25.550;2023-09-07T09:10:48;7.10;;;4.72;;
37065;SDS011;22981;43.080;25.550;2023-09-07T09:13:15;7.15;;;4.90;;
37065;SDS011;22981;43.080;25.550;2023-09-07T09:15:44;7.95;;;5.10;;
37065;SDS011;22981;43.080;25.550;2023-09-07T09:18:14;6.58;;;5.03;;
37065;SDS011;22981;43.080;25.550;2023-09-07T09:20:42;7.40;;;5.33;;
37065;SDS011;22981;43.080;25.550;2023-09-07T09:23:10;5.58;;;4.78;;
37065;SDS011;22981;43.080;25.550;2023-09-07T09:25:44;9.00;;;4.87;;
37065;SDS011;22981;43.080;25.550;2023-09-07T09:28:09;6.17;;;4.50;;
37065;SDS011;22981;43.080;25.550;2023-09-07T09:30:37;5.53;;;4.65;;
37065;SDS011;22981;43.080;25.550;2023-09-07T09:33:05;5.50;;;4.60;;
37065;SDS011;22981;43.080;25.550;2023-09-07T09:35:34;8.13;;;4.72;;
37065;SDS011;22981;43.080;25.550;2023-09-07T09:38:02;6.75;;;4.87;;
37065;SDS011;22981;43.080;25.550;2023-09-07T09:40:30;6.05;;;4.62;;
37065;SDS011;22981;43.080;25.550;2023-09-07T09:43:01;9.25;;;4.75;;
37065;SDS011;22981;43.080;25.550;2023-09-07T09:45:29;8.58;;;4.97;;
37065;SDS011;22981;43.080;25.550;2023-09-07T09:47:58;9.10;;;5.08;;
37065;SDS011;22981;43.080;25.550;2023-09-07T09:50:26;7.53;;;4.33;;
37065;SDS011;22981;43.080;25.550;2023-09-07T09:52:54;9.40;;;4.55;;
37065;SDS011;22981;43.080;25.550;2023-09-07T09:55:22;5.17;;;4.22;;
37065;SDS011;22981;43.080;25.550;2023-09-07T09:57:51;5.47;;;4.40;;
37065;SDS011;22981;43.080;25.550;2023-09-07T10:00:20;7.92;;;4.28;;
37065;SDS011;22981;43.080;25.550;2023-09-07T10:03:07;6.03;;;4.15;;
37065;SDS011;22981;43.080;25.550;2023-09-07T10:05:32;6.87;;;4.50;;
37065;SDS011;22981;43.080;25.550;2023-09-07T10:08:07;4.67;;;4.08;;
37065;SDS011;22981;43.080;25.550;2023-09-07T10:13:03;6.80;;;4.37;;
37065;SDS011;22981;43.080;25.550;2023-09-07T10:15:31;6.65;;;4.40;;
37065;SDS011;22981;43.080;25.550;2023-09-07T10:18:11;4.72;;;4.20;;
37065;SDS011;22981;43.080;25.550;2023-09-07T10:20:51;7.85;;;4.00;;
37065;SDS011;22981;43.080;25.550;2023-09-07T10:23:35;5.25;;;4.37;;
37065;SDS011;22981;43.080;25.550;2023-09-07T10:25:52;6.80;;;3.83;;
37065;SDS011;22981;43.080;25.550;2023-09-07T10:28:22;9.78;;;4.45;;
37065;SDS011;22981;43.080;25.550;2023-09-07T10:33:35;8.28;;;4.75;;
37065;SDS011;22981;43.080;25.550;2023-09-07T10:36:03;6.25;;;4.17;;
37065;SDS011;22981;43.080;25.550;2023-09-07T10:38:31;9.63;;;4.20;;
37065;SDS011;22981;43.080;25.550;2023-09-07T10:41:00;9.45;;;3.90;;
37065;SDS011;22981;43.080;25.550;2023-09-07T10:43:30;6.67;;;4.35;;
37065;SDS011;22981;43.080;25.550;2023-09-07T10:45:59;7.17;;;4.33;;
37065;SDS011;22981;43.080;25.550;2023-09-07T10:48:30;7.90;;;4.55;;
37065;SDS011;22981;43.080;25.550;2023-09-07T10:50:58;6.22;;;4.25;;
37065;SDS011;22981;43.080;25.550;2023-09-07T10:53:27;5.50;;;4.40;;
37065;SDS011;22981;43.080;25.550;2023-09-07T10:55:58;5.78;;;4.55;;
37065;SDS011;22981;43.080;25.550;2023-09-07T10:58:29;7.30;;;4.15;;
37065;SDS011;22981;43.080;25.550;2023-09-07T11:03:24;5.75;;;4.42;;
37065;SDS011;22981;43.080;25.550;2023-09-07T11:05:56;6.37;;;4.30;;
37065;SDS011;22981;43.080;25.550;2023-09-07T11:08:26;9.10;;;4.50;;
37065;SDS011;22981;43.080;25.550;2023-09-07T11:10:56;10.15;;;4.45;;
37065;SDS011;22981;43.080;25.550;2023-09-07T11:13:24;6.20;;;4.90;;
37065;SDS011;22981;43.080;25.550;2023-09-07T11:15:56;7.35;;;4.70;;
37065;SDS011;22981;43.080;25.550;2023-09-07T11:18:24;7.65;;;4.42;;
37065;SDS011;22981;43.080;25.550;2023-09-07T11:20:52;6.75;;;4.10;;
37065;SDS011;22981;43.080;25.550;2023-09-07T11:23:20;6.15;;;3.80;;
37065;SDS011;22981;43.080;25.550;2023-09-07T11:25:49;9.00;;;4.37;;
37065;SDS011;22981;43.080;25.550;2023-09-07T11:28:17;4.92;;;4.10;;
37065;SDS011;22981;43.080;25.550;2023-09-07T11:30:51;4.75;;;3.72;;
37065;SDS011;22981;43.080;25.550;2023-09-07T11:33:21;10.35;;;4.17;;
37065;SDS011;22981;43.080;25.550;2023-09-07T11:35:49;6.28;;;3.60;;
37065;SDS011;22981;43.080;25.550;2023-09-07T11:38:19;7.83;;;4.12;;
37065;SDS011;22981;43.080;25.550;2023-09-07T11:40:47;9.75;;;4.25;;
37065;SDS011;22981;43.080;25.550;2023-09-07T11:43:16;5.85;;;4.25;;
37065;SDS011;22981;43.080;25.550;2023-09-07T11:45:46;6.10;;;4.17;;
37065;SDS011;22981;43.080;25.550;2023-09-07T11:48:14;5.55;;;3.72;;
37065;SDS011;22981;43.080;25.550;2023-09-07T11:50:41;4.97;;;4.08;;
37065;SDS011;22981;43.080;25.550;2023-09-07T11:53:09;4.72;;;4.30;;
37065;SDS011;22981;43.080;25.550;2023-09-07T11:55:37;6.83;;;4.60;;
37065;SDS011;22981;43.080;25.550;2023-09-07T11:58:06;7.20;;;4.15;;
37065;SDS011;22981;43.080;25.550;2023-09-07T12:00:34;5.95;;;3.87;;
37065;SDS011;22981;43.080;25.550;2023-09-07T12:03:02;7.53;;;4.53;;
37065;SDS011;22981;43.080;25.550;2023-09-07T12:05:30;6.45;;;3.85;;
37065;SDS011;22981;43.080;25.550;2023-09-07T12:07:57;7.70;;;4.05;;
37065;SDS011;22981;43.080;25.550;2023-09-07T12:10:26;6.37;;;3.75;;
37065;SDS011;22981;43.080;25.550;2023-09-07T12:12:53;6.37;;;4.25;;
37065;SDS011;22981;43.080;25.550;2023-09-07T12:15:21;7.17;;;4.08;;
37065;SDS011;22981;43.080;25.550;2023-09-07T12:17:48;5.67;;;4.00;;
37065;SDS011;22981;43.080;25.550;2023-09-07T12:20:18;5.72;;;3.75;;
37065;SDS011;22981;43.080;25.550;2023-09-07T12:22:45;6.47;;;3.98;;
37065;SDS011;22981;43.080;25.550;2023-09-07T12:25:14;5.30;;;3.70;;
37065;SDS011;22981;43.080;25.550;2023-09-07T12:27:42;6.45;;;4.00;;
37065;SDS011;22981;43.080;25.550;2023-09-07T12:30:11;6.08;;;4.05;;
37065;SDS011;22981;43.080;25.550;2023-09-07T12:32:39;6.53;;;4.15;;
37065;SDS011;22981;43.080;25.550;2023-09-07T12:35:07;6.35;;;4.08;;
37065;SDS011;22981;43.080;25.550;2023-09-07T12:37:35;6.28;;;4.08;;
37065;SDS011;22981;43.080;25.550;2023-09-07T12:40:03;6.62;;;4.33;;
37065;SDS011;22981;43.080;25.550;2023-09-07T12:42:32;4.55;;;4.08;;
37065;SDS011;22981;43.080;25.550;2023-09-07T12:45:00;6.58;;;3.75;;
37065;SDS011;22981;43.080;25.550;2023-09-07T12:47:29;5.92;;;3.75;;
37065;SDS011;22981;43.080;25.550;2023-09-07T12:49:57;5.85;;;4.12;;
37065;SDS011;22981;43.080;25.550;2023-09-07T12:52:24;4.40;;;4.00;;
37065;SDS011;22981;43.080;25.550;2023-09-07T12:54:52;7.80;;;4.17;;
37065;SDS011;22981;43.080;25.550;2023-09-07T12:57:19;5.05;;;3.87;;
37065;SDS011;22981;43.080;25.550;2023-09-07T12:59:47;5.40;;;3.90;;
37065;SDS011;22981;43.080;25.550;2023-09-07T13:02:15;7.05;;;4.20;;
37065;SDS011;22981;43.080;25.550;2023-09-07T13:04:42;5.55;;;4.20;;
37065;SDS011;22981;43.080;25.550;2023-09-07T13:07:10;9.00;;;4.15;;
37065;SDS011;22981;43.080;25.550;2023-09-07T13:09:37;6.90;;;3.60;;
37065;SDS011;22981;43.080;25.550;2023-09-07T13:12:05;6.00;;;4.42;;
37065;SDS011;22981;43.080;25.550;2023-09-07T13:14:33;9.63;;;4.47;;
37065;SDS011;22981;43.080;25.550;2023-09-07T13:17:00;6.65;;;3.85;;
37065;SDS011;22981;43.080;25.550;2023-09-07T13:19:28;4.53;;;3.90;;
37065;SDS011;22981;43.080;25.550;2023-09-07T13:21:55;9.03;;;4.12;;
37065;SDS011;22981;43.080;25.550;2023-09-07T13:24:23;6.12;;;4.20;;
37065;SDS011;22981;43.080;25.550;2023-09-07T13:26:51;7.05;;;3.75;;
37065;SDS011;22981;43.080;25.550;2023-09-07T13:29:18;8.75;;;4.05;;
37065;SDS011;22981;43.080;25.550;2023-09-07T13:31:46;4.42;;;3.83;;
37065;SDS011;22981;43.080;25.550;2023-09-07T13:34:13;7.17;;;4.15;;
37065;SDS011;22981;43.080;25.550;2023-09-07T13:36:41;5.50;;;3.47;;
37065;SDS011;22981;43.080;25.550;2023-09-07T13:39:09;6.08;;;3.75;;
37065;SDS011;22981;43.080;25.550;2023-09-07T13:41:36;5.58;;;3.90;;
37065;SDS011;22981;43.080;25.550;2023-09-07T13:44:04;6.05;;;3.80;;
37065;SDS011;22981;43.080;25.550;2023-09-07T13:46:31;6.53;;;3.87;;
37065;SDS011;22981;43.080;25.550;2023-09-07T13:49:00;7.05;;;4.15;;
37065;SDS011;22981;43.080;25.550;2023-09-07T13:51:27;4.92;;;3.77;;
37065;SDS011;22981;43.080;25.550;2023-09-07T13:53:57;7.92;;;4.20;;
37065;SDS011;22981;43.080;25.550;2023-09-07T13:56:24;8.85;;;4.03;;
37065;SDS011;22981;43.080;25.550;2023-09-07T13:58:52;4.78;;;4.10;;
37065;SDS011;22981;43.080;25.550;2023-09-07T14:01:20;4.58;;;3.77;;
37065;SDS011;22981;43.080;25.550;2023-09-07T14:03:49;5.40;;;3.90;;
37065;SDS011;22981;43.080;25.550;2023-09-07T14:06:17;6.87;;;4.03;;
37065;SDS011;22981;43.080;25.550;2023-09-07T14:08:46;5.67;;;4.08;;
37065;SDS011;22981;43.080;25.550;2023-09-07T14:11:14;5.37;;;4.17;;
37065;SDS011;22981;43.080;25.550;2023-09-07T14:13:42;5.03;;;4.20;;
37065;SDS011;22981;43.080;25.550;2023-09-07T14:16:09;4.72;;;3.80;;
37065;SDS011;22981;43.080;25.550;2023-09-07T14:18:37;6.00;;;3.95;;
37065;SDS011;22981;43.080;25.550;2023-09-07T14:21:04;6.62;;;4.03;;
37065;SDS011;22981;43.080;25.550;2023-09-07T14:23:32;6.17;;;3.60;;
37065;SDS011;22981;43.080;25.550;2023-09-07T14:26:00;6.55;;;3.60;;
37065;SDS011;22981;43.080;25.550;2023-09-07T14:28:27;4.22;;;3.58;;
37065;SDS011;22981;43.080;25.550;2023-09-07T14:30:55;5.67;;;4.55;;
37065;SDS011;22981;43.080;25.550;2023-09-07T14:33:24;9.80;;;4.40;;
37065;SDS011;22981;43.080;25.550;2023-09-07T14:35:52;4.53;;;3.85;;
37065;SDS011;22981;43.080;25.550;2023-09-07T14:38:20;4.58;;;3.77;;
37065;SDS011;22981;43.080;25.550;2023-09-07T14:40:49;5.58;;;4.35;;
37065;SDS011;22981;43.080;25.550;2023-09-07T14:43:18;10.38;;;6.50;;
37065;SDS011;22981;43.080;25.550;2023-09-07T14:45:45;12.25;;;8.78;;